Terminal Aerodrome Forecast
Issued by NWS Wilmington, OH

Home | Current Version | Previous Version | Text Only | Print | Product List | Glossary On
Versions: 1 2 3 4 5 6 7 8 9 10 11 12 13 14 15 16
472
FTUS41 KILN 281138
TAFCMH
TAF
KCMH 281138Z 2812/2912 28004KT 3SM BR VCSH OVC005
     FM281400 35005KT P6SM VCSH OVC008
     FM281500 35007KT P6SM OVC015
     FM282100 01007KT P6SM BKN025
     FM290800 01006KT P6SM BKN025=

USA.gov is the U.S. government's official web portal to all federal, state and local government web resources and services.